createdAt,value
2017-07-01T00:01:31.620Z,1.57
2017-07-01T00:06:33.293Z,0.90
2017-07-01T00:11:34.858Z,1.27
2017-07-01T00:16:36.512Z,0.90
2017-07-01T00:21:38.208Z,2.10
2017-07-01T00:26:39.885Z,2.50
2017-07-01T00:31:41.476Z,2.13
2017-07-01T00:36:43.204Z,0.80
2017-07-01T00:41:44.901Z,2.90
2017-07-01T00:46:46.492Z,1.30
2017-07-01T00:51:48.084Z,3.70
2017-07-01T00:56:49.716Z,1.10
2017-07-01T01:01:51.386Z,1.87
2017-07-01T01:06:53.062Z,1.60
2017-07-01T01:11:54.734Z,1.80
2017-07-01T01:16:56.608Z,5.50
2017-07-01T01:21:58.168Z,1.10
2017-07-01T01:26:59.954Z,0.83
2017-07-01T01:32:01.628Z,1.13
2017-07-01T01:37:03.246Z,1.40
2017-07-01T01:42:04.948Z,2.20
2017-07-01T01:47:06.645Z,1.70
2017-07-01T01:52:08.318Z,1.03
2017-07-01T01:57:09.966Z,1.10
2017-07-01T02:02:11.665Z,1.10
2017-07-01T02:07:13.268Z,1.33
2017-07-01T02:12:14.996Z,3.43
2017-07-01T02:17:35.321Z,1.67
2017-07-01T02:22:38.021Z,1.60
2017-07-01T02:27:39.669Z,1.70
2017-07-01T02:32:48.940Z,2.03
2017-07-01T02:37:50.612Z,2.20
2017-07-01T02:43:08.606Z,3.00
2017-07-01T02:48:31.589Z,1.70
2017-07-01T02:53:50.048Z,4.40
2017-07-01T02:59:11.607Z,2.13
2017-07-01T03:04:29.896Z,2.73
2017-07-01T03:09:50.295Z,2.27
2017-07-01T03:15:08.429Z,4.83
2017-07-01T03:20:29.074Z,2.53
2017-07-01T03:25:30.683Z,2.27
2017-07-01T03:30:32.420Z,2.00
2017-07-01T03:35:34.586Z,2.10
2017-07-01T03:40:46.104Z,2.60
2017-07-01T03:45:48.732Z,2.30
2017-07-01T03:50:51.214Z,2.73
2017-07-01T03:55:52.857Z,2.60
2017-07-01T04:00:54.460Z,4.10
2017-07-01T04:05:56.234Z,2.57
2017-07-01T04:10:58.006Z,2.60
2017-07-01T04:15:59.678Z,4.73
2017-07-01T04:21:01.291Z,2.30
2017-07-01T04:26:03.024Z,2.40
2017-07-01T04:31:04.696Z,2.83
2017-07-01T04:36:06.369Z,2.37
2017-07-01T04:41:08.043Z,2.07
2017-07-01T04:46:09.714Z,2.73
2017-07-01T04:51:33.105Z,2.30
2017-07-01T04:56:58.321Z,2.20
2017-07-01T05:02:00.813Z,2.47
2017-07-01T05:07:24.168Z,2.13
2017-07-01T05:12:31.786Z,2.40
2017-07-01T05:17:40.581Z,2.10
2017-07-01T05:22:51.417Z,2.80
2017-07-01T05:27:53.210Z,2.30
2017-07-01T05:32:54.882Z,2.17
2017-07-01T05:37:56.555Z,3.03
2017-07-01T05:43:16.943Z,3.73
2017-07-01T05:48:21.276Z,7.23
2017-07-01T05:53:23.077Z,1.70
2017-07-01T05:58:24.728Z,2.23
2017-07-01T06:03:26.401Z,2.00
2017-07-01T06:08:29.230Z,1.90
2017-07-01T06:13:43.052Z,2.70
2017-07-01T06:18:44.757Z,1.90
2017-07-01T06:24:01.273Z,1.77
2017-07-01T06:29:31.567Z,1.63
2017-07-01T06:34:59.300Z,2.20
2017-07-01T06:40:00.973Z,3.53
2017-07-01T06:45:02.593Z,5.30
2017-07-01T06:50:05.145Z,2.63
2017-07-01T06:55:10.702Z,1.73
2017-07-01T07:00:13.194Z,2.67
2017-07-01T07:05:15.071Z,1.77
2017-07-01T07:10:17.564Z,5.67
2017-07-01T07:15:19.325Z,12.23
2017-07-01T07:20:21.187Z,4.10
2017-07-01T07:25:22.890Z,2.13
2017-07-01T07:30:25.368Z,4.60
2017-07-01T07:35:27.836Z,1.87
2017-07-01T07:40:29.491Z,1.50
2017-07-01T07:45:31.320Z,3.67
2017-07-01T07:50:33.988Z,1.43
2017-07-01T07:55:35.717Z,1.33
2017-07-01T08:01:11.870Z,1.00
2017-07-01T08:06:13.545Z,1.13
2017-07-01T08:11:16.238Z,1.27
2017-07-01T08:16:18.798Z,1.20
2017-07-01T08:21:21.429Z,1.63
2017-07-01T08:26:23.307Z,1.37
2017-07-01T08:31:24.979Z,2.67
2017-07-01T08:36:26.623Z,2.60
2017-07-01T08:41:28.424Z,3.00
2017-07-01T08:46:30.098Z,1.53
2017-07-01T08:51:31.769Z,1.60
2017-07-01T08:56:33.489Z,6.03
2017-07-01T09:01:35.319Z,9.23
2017-07-01T09:06:36.993Z,3.00
2017-07-01T09:11:38.665Z,1.60
2017-07-01T09:16:42.386Z,1.80
2017-07-01T09:21:59.010Z,1.93
2017-07-01T09:27:00.649Z,1.43
2017-07-01T09:32:02.355Z,1.40
2017-07-01T09:37:04.027Z,1.80
2017-07-01T09:42:09.182Z,1.90
2017-07-01T09:47:10.853Z,2.20
2017-07-01T09:52:14.575Z,2.50
2017-07-01T09:57:16.348Z,2.00
2017-07-01T10:02:18.021Z,2.20
2017-07-01T10:07:19.669Z,2.90
2017-07-01T10:12:21.366Z,2.00
2017-07-01T10:17:23.013Z,3.40
2017-07-01T10:22:24.677Z,5.20
2017-07-01T10:27:27.006Z,2.10
2017-07-01T10:32:28.644Z,2.20
2017-07-01T10:37:30.343Z,2.40
2017-07-01T10:42:31.992Z,2.53
2017-07-01T10:47:33.690Z,3.47
2017-07-01T10:52:36.386Z,2.60
2017-07-01T10:57:37.940Z,2.40
2017-07-01T11:02:39.731Z,2.10
2017-07-01T11:07:42.402Z,2.20
2017-07-01T11:12:44.100Z,2.60
2017-07-01T11:17:45.745Z,2.60
2017-07-01T11:22:47.446Z,3.00
2017-07-01T11:27:49.117Z,3.53
2017-07-01T11:32:50.791Z,3.80
2017-07-01T11:37:52.463Z,2.50
2017-07-01T11:42:54.136Z,4.00
2017-07-01T11:47:55.732Z,2.47
2017-07-01T11:52:57.409Z,2.70
2017-07-01T11:57:59.158Z,2.80
2017-07-01T12:03:00.803Z,2.60
2017-07-01T12:08:02.420Z,8.10
2017-07-01T12:13:04.145Z,3.07
2017-07-01T12:18:05.818Z,3.10
2017-07-01T12:23:07.517Z,3.43
2017-07-01T12:28:09.190Z,3.40
2017-07-01T12:33:11.477Z,3.27
2017-07-01T12:38:13.150Z,4.20
2017-07-01T12:43:16.869Z,2.80
2017-07-01T12:48:20.590Z,2.70
2017-07-01T12:53:22.263Z,5.67
2017-07-01T12:58:23.912Z,6.53
2017-07-01T13:03:28.339Z,2.93
2017-07-01T13:08:31.530Z,3.20
2017-07-01T13:13:40.427Z,4.67
2017-07-01T13:18:42.272Z,3.53
2017-07-01T13:23:46.021Z,3.20
2017-07-01T13:28:48.307Z,3.97
2017-07-01T13:33:49.926Z,3.10
2017-07-01T13:38:51.551Z,3.47
2017-07-01T13:43:53.224Z,3.40
2017-07-01T13:48:54.871Z,3.30
2017-07-01T13:53:57.528Z,3.50
2017-07-01T13:58:59.265Z,3.97
2017-07-01T14:04:00.909Z,4.23
2017-07-01T14:09:03.431Z,4.60
2017-07-01T14:14:05.101Z,7.03
2017-07-01T14:19:06.776Z,3.50
2017-07-01T14:24:08.549Z,6.40
2017-07-01T14:29:10.222Z,5.43
2017-07-01T14:34:11.894Z,4.20
2017-07-01T14:39:13.511Z,4.60
2017-07-01T14:44:15.240Z,7.93
2017-07-01T14:49:16.913Z,8.37
2017-07-01T14:54:18.585Z,5.63
2017-07-01T14:59:20.257Z,7.03
2017-07-01T15:04:26.304Z,6.17
2017-07-01T15:09:28.157Z,6.60
2017-07-01T15:14:29.857Z,6.00
2017-07-01T15:19:31.556Z,8.03
2017-07-01T15:24:33.230Z,5.30
2017-07-01T15:29:35.004Z,5.40
2017-07-01T15:34:36.654Z,5.47
2017-07-01T15:39:38.350Z,6.53
2017-07-01T15:44:40.022Z,9.00
2017-07-01T15:49:41.694Z,6.30
2017-07-01T15:54:43.369Z,6.83
2017-07-01T16:00:08.506Z,7.37
2017-07-01T16:05:10.238Z,5.47
2017-07-01T16:10:11.939Z,59.70
2017-07-01T16:15:13.816Z,15.50
2017-07-01T16:20:15.465Z,10.10
2017-07-01T16:25:17.160Z,7.03
2017-07-01T16:30:18.833Z,5.63
2017-07-01T16:35:21.085Z,5.60
2017-07-01T16:40:22.793Z,6.33
2017-07-01T16:45:24.466Z,11.17
2017-07-01T16:50:26.753Z,6.53
2017-07-01T16:55:28.425Z,6.40
2017-07-01T17:00:30.097Z,7.80
2017-07-01T17:05:31.718Z,6.33
2017-07-01T17:10:33.416Z,7.60
2017-07-01T17:15:35.726Z,8.30
2017-07-01T17:20:37.382Z,7.50
2017-07-01T17:25:39.052Z,7.10
2017-07-01T17:30:40.748Z,7.33
2017-07-01T17:35:42.422Z,10.03
2017-07-01T17:40:44.095Z,15.03
2017-07-01T17:45:45.869Z,10.83
2017-07-01T17:50:47.620Z,7.73
2017-07-01T17:55:49.727Z,7.87
2017-07-01T18:00:51.994Z,10.40
2017-07-01T18:05:53.662Z,10.60
2017-07-01T18:10:55.943Z,9.73
2017-07-01T18:15:57.646Z,6.97
2017-07-01T18:20:59.318Z,7.37
2017-07-01T18:26:00.991Z,7.97
2017-07-01T18:31:02.664Z,6.73
2017-07-01T18:36:04.336Z,7.53
2017-07-01T18:41:06.214Z,8.83
2017-07-01T18:46:07.886Z,9.30
2017-07-01T18:51:09.561Z,9.97
2017-07-01T18:56:11.436Z,6.00
2017-07-01T19:01:13.109Z,7.87
2017-07-01T19:06:14.815Z,7.40
2017-07-01T19:11:17.272Z,6.07
2017-07-01T19:16:19.356Z,8.00
2017-07-01T19:21:21.002Z,14.43
2017-07-01T19:26:23.551Z,6.10
2017-07-01T19:31:25.965Z,7.40
2017-07-01T19:36:27.891Z,6.83
2017-07-01T19:41:29.772Z,8.03
2017-07-01T19:46:31.440Z,8.40
2017-07-01T19:51:33.112Z,5.53
2017-07-01T19:56:34.787Z,10.80
2017-07-01T20:01:36.437Z,11.43
2017-07-01T20:06:38.109Z,20.37
2017-07-01T20:11:39.881Z,7.80
2017-07-01T20:16:41.580Z,8.23
2017-07-01T20:21:43.228Z,12.90
2017-07-01T20:26:44.905Z,10.30
2017-07-01T20:31:46.569Z,8.00
2017-07-01T20:36:48.849Z,11.23
2017-07-01T20:41:50.556Z,12.43
2017-07-01T20:46:52.228Z,14.50
2017-07-01T20:51:53.900Z,15.20
2017-07-01T20:56:55.758Z,12.43
2017-07-01T21:01:57.553Z,19.53
2017-07-01T21:06:59.329Z,19.27
2017-07-01T21:12:01.001Z,19.43
2017-07-01T21:17:02.674Z,18.90
2017-07-01T21:22:04.325Z,20.30
2017-07-01T21:27:06.021Z,18.53
2017-07-01T21:32:07.691Z,31.13
2017-07-01T21:37:09.364Z,22.50
2017-07-01T21:42:12.062Z,20.83
2017-07-01T21:47:13.939Z,19.60
2017-07-01T21:52:15.611Z,26.67
2017-07-01T21:57:32.236Z,21.73
2017-07-01T22:02:34.931Z,27.43
2017-07-01T22:07:37.196Z,29.33
2017-07-01T22:12:38.994Z,25.30
2017-07-01T22:17:40.973Z,31.93
2017-07-01T22:22:42.645Z,27.80
2017-07-01T22:27:44.294Z,26.07
2017-07-01T22:32:46.094Z,30.30
2017-07-01T22:37:47.766Z,23.67
2017-07-01T22:42:51.283Z,25.40
2017-07-01T22:47:52.929Z,20.60
2017-07-01T22:52:54.629Z,25.87
2017-07-01T22:57:56.403Z,22.33
2017-07-01T23:02:59.074Z,25.50
2017-07-01T23:08:00.746Z,23.77
2017-07-01T23:13:02.444Z,19.00
2017-07-01T23:18:04.118Z,24.33
2017-07-01T23:23:06.404Z,24.90
2017-07-01T23:28:08.567Z,20.07
2017-07-01T23:33:11.490Z,18.43
2017-07-01T23:38:14.187Z,18.33
2017-07-01T23:43:15.860Z,21.13
2017-07-01T23:48:17.840Z,17.73
2017-07-01T23:53:19.484Z,20.80
2017-07-01T23:58:21.185Z,22.73
